createdAt,value
2023-09-05T00:01:47.957Z,11.35
2023-09-05T00:04:15.467Z,11.70
2023-09-05T00:06:42.538Z,12.57
2023-09-05T00:09:09.531Z,10.85
2023-09-05T00:11:36.491Z,14.32
2023-09-05T00:14:03.413Z,12.45
2023-09-05T00:16:30.703Z,13.02
2023-09-05T00:18:58.165Z,11.45
2023-09-05T00:21:25.096Z,12.85
2023-09-05T00:23:52.038Z,12.73
2023-09-05T00:26:18.956Z,12.98
2023-09-05T00:28:46.330Z,11.48
2023-09-05T00:31:15.574Z,14.45
2023-09-05T00:33:42.553Z,12.80
2023-09-05T00:36:10.142Z,13.98
2023-09-05T00:38:38.135Z,12.35
2023-09-05T00:41:06.128Z,12.13
2023-09-05T00:43:33.147Z,12.77
2023-09-05T00:46:00.101Z,11.52
2023-09-05T00:48:29.765Z,12.05
2023-09-05T00:50:59.889Z,11.25
2023-09-05T00:53:27.940Z,11.68
2023-09-05T00:55:55.261Z,12.70
2023-09-05T00:58:22.305Z,12.52
2023-09-05T01:00:49.246Z,11.98
2023-09-05T01:03:16.196Z,11.60
2023-09-05T01:05:49.380Z,13.77
2023-09-05T01:08:27.647Z,14.55
2023-09-05T01:11:01.242Z,13.32
2023-09-05T01:13:28.962Z,13.25
2023-09-05T01:15:56.295Z,12.23
2023-09-05T01:18:23.358Z,13.35
2023-09-05T01:21:07.594Z,12.20
2023-09-05T01:23:41.153Z,13.50
2023-09-05T01:26:08.606Z,14.02
2023-09-05T01:28:37.303Z,13.50
2023-09-05T01:31:04.425Z,15.15
2023-09-05T01:33:31.358Z,18.55
2023-09-05T01:35:58.322Z,17.62
2023-09-05T01:38:25.389Z,21.70
2023-09-05T01:40:52.301Z,17.55
2023-09-05T01:43:19.557Z,14.35
2023-09-05T01:45:46.431Z,16.48
2023-09-05T01:48:13.328Z,15.48
2023-09-05T01:50:40.246Z,12.23
2023-09-05T01:53:07.234Z,14.10
2023-09-05T01:55:34.295Z,15.07
2023-09-05T01:58:01.217Z,14.50
2023-09-05T02:00:28.237Z,15.68
2023-09-05T02:02:55.258Z,14.85
2023-09-05T02:05:22.208Z,15.00
2023-09-05T02:07:49.085Z,15.57
2023-09-05T02:10:16.142Z,17.90
2023-09-05T02:12:45.384Z,15.27
2023-09-05T02:15:12.620Z,14.98
2023-09-05T02:17:39.596Z,17.73
2023-09-05T02:20:07.160Z,15.85
2023-09-05T02:22:34.119Z,18.05
2023-09-05T02:25:02.300Z,14.73
2023-09-05T02:27:29.324Z,16.42
2023-09-05T02:30:02.663Z,14.90
2023-09-05T02:32:30.913Z,11.63
2023-09-05T02:34:59.404Z,12.23
2023-09-05T02:37:26.497Z,10.85
2023-09-05T02:39:53.945Z,9.70
2023-09-05T02:42:20.914Z,10.75
2023-09-05T02:44:52.329Z,11.00
2023-09-05T02:47:19.311Z,10.50
2023-09-05T02:49:46.229Z,10.13
2023-09-05T02:52:13.523Z,10.15
2023-09-05T02:54:40.421Z,9.80
2023-09-05T02:57:07.604Z,10.65
2023-09-05T02:59:34.505Z,9.88
2023-09-05T03:02:01.401Z,10.57
2023-09-05T03:04:33.809Z,9.45
2023-09-05T03:07:02.786Z,9.82
2023-09-05T03:09:30.655Z,9.13
2023-09-05T03:11:58.001Z,10.10
2023-09-05T03:14:24.973Z,11.45
2023-09-05T03:16:52.444Z,10.05
2023-09-05T03:19:23.297Z,9.77
2023-09-05T03:21:51.037Z,10.70
2023-09-05T03:24:19.544Z,9.82
2023-09-05T03:26:47.729Z,9.40
2023-09-05T03:29:14.866Z,10.00
2023-09-05T03:31:42.347Z,10.63
2023-09-05T03:34:09.825Z,10.38
2023-09-05T03:36:37.585Z,8.93
2023-09-05T03:39:04.558Z,10.55
2023-09-05T03:41:32.042Z,23.15
2023-09-05T03:43:59.055Z,11.30
2023-09-05T03:46:25.978Z,10.73
2023-09-05T03:48:54.484Z,12.43
2023-09-05T03:51:21.552Z,11.35
2023-09-05T03:53:48.589Z,11.48
2023-09-05T03:56:15.532Z,11.35
2023-09-05T03:58:42.528Z,9.80
2023-09-05T04:01:18.695Z,13.23
2023-09-05T04:03:48.618Z,11.77
2023-09-05T04:06:15.649Z,11.40
2023-09-05T04:08:42.546Z,12.07
2023-09-05T04:11:09.491Z,10.35
2023-09-05T04:13:36.480Z,10.88
2023-09-05T04:16:07.128Z,10.60
2023-09-05T04:18:35.357Z,11.40
2023-09-05T04:21:02.716Z,14.30
2023-09-05T04:23:29.995Z,11.20
2023-09-05T04:25:59.265Z,13.98
2023-09-05T04:28:26.848Z,12.35
2023-09-05T04:30:56.017Z,11.98
2023-09-05T04:33:25.560Z,10.90
2023-09-05T04:35:53.019Z,10.25
2023-09-05T04:38:20.102Z,12.02
2023-09-05T04:40:47.012Z,15.90
2023-09-05T04:43:13.936Z,13.38
2023-09-05T04:45:40.848Z,12.77
2023-09-05T04:48:08.090Z,10.55
2023-09-05T04:50:35.062Z,13.45
2023-09-05T04:53:02.001Z,10.45
2023-09-05T04:55:28.949Z,13.77
2023-09-05T04:57:55.866Z,13.85
2023-09-05T05:00:24.760Z,15.15
2023-09-05T05:02:51.750Z,9.93
2023-09-05T05:05:18.865Z,13.18
2023-09-05T05:07:46.789Z,15.00
2023-09-05T05:10:14.034Z,10.32
2023-09-05T05:12:41.859Z,9.60
2023-09-05T05:15:09.454Z,8.30
2023-09-05T05:17:37.832Z,8.40
2023-09-05T05:20:07.867Z,8.68
2023-09-05T05:22:34.946Z,13.07
2023-09-05T05:25:01.899Z,8.70
2023-09-05T05:27:29.023Z,9.02
2023-09-05T05:29:55.966Z,8.27
2023-09-05T05:32:22.894Z,10.43
2023-09-05T05:34:50.180Z,9.88
2023-09-05T05:37:17.748Z,9.52
2023-09-05T05:39:44.876Z,9.00
2023-09-05T05:42:12.629Z,7.93
2023-09-05T05:44:41.163Z,7.68
2023-09-05T05:47:08.282Z,8.27
2023-09-05T05:49:35.200Z,8.90
2023-09-05T05:52:02.494Z,9.07
2023-09-05T05:54:29.462Z,7.97
2023-09-05T05:56:56.976Z,7.22
2023-09-05T05:59:25.944Z,7.05
2023-09-05T06:01:54.003Z,8.80
2023-09-05T06:04:21.580Z,9.40
2023-09-05T06:06:51.834Z,7.90
2023-09-05T06:09:21.711Z,7.82
2023-09-05T06:11:48.714Z,7.93
2023-09-05T06:14:18.281Z,7.70
2023-09-05T06:16:47.922Z,8.73
2023-09-05T06:19:15.642Z,7.60
2023-09-05T06:21:47.964Z,8.32
2023-09-05T06:24:15.287Z,7.90
2023-09-05T06:26:42.910Z,7.05
2023-09-05T06:29:09.992Z,8.15
2023-09-05T06:31:37.036Z,6.95
2023-09-05T06:34:04.141Z,8.95
2023-09-05T06:36:31.025Z,9.52
2023-09-05T06:38:57.977Z,7.15
2023-09-05T06:41:24.994Z,7.30
2023-09-05T06:43:51.935Z,6.35
2023-09-05T06:46:18.838Z,9.75
2023-09-05T06:48:46.675Z,6.62
2023-09-05T06:51:13.651Z,7.25
2023-09-05T06:53:40.583Z,9.27
2023-09-05T06:56:08.035Z,6.85
2023-09-05T06:58:34.979Z,12.70
2023-09-05T07:01:06.167Z,7.97
2023-09-05T07:03:33.164Z,6.53
2023-09-05T07:06:07.161Z,8.63
2023-09-05T07:08:34.929Z,7.35
2023-09-05T07:11:02.278Z,7.05
2023-09-05T07:13:29.376Z,7.10
2023-09-05T07:15:58.065Z,7.07
2023-09-05T07:18:25.909Z,7.30
2023-09-05T07:20:53.406Z,8.65
2023-09-05T07:23:20.434Z,7.78
2023-09-05T07:25:47.439Z,8.10
2023-09-05T07:28:14.465Z,7.07
2023-09-05T07:30:42.155Z,7.32
2023-09-05T07:33:09.689Z,6.37
2023-09-05T07:35:37.980Z,8.43
2023-09-05T07:38:05.222Z,6.75
2023-09-05T07:40:32.210Z,7.53
2023-09-05T07:43:01.700Z,7.10
2023-09-05T07:45:28.866Z,6.47
2023-09-05T07:47:55.870Z,8.80
2023-09-05T07:50:23.964Z,9.60
2023-09-05T07:52:50.898Z,7.37
2023-09-05T07:55:18.162Z,8.98
2023-09-05T07:57:45.518Z,7.60
2023-09-05T08:00:16.227Z,9.75
2023-09-05T08:02:43.655Z,6.82
2023-09-05T08:05:10.929Z,7.80
2023-09-05T08:07:39.078Z,7.57
2023-09-05T08:10:07.891Z,9.32
2023-09-05T08:12:35.231Z,8.73
2023-09-05T08:15:02.187Z,10.20
2023-09-05T08:17:30.409Z,7.07
2023-09-05T08:19:58.002Z,8.20
2023-09-05T08:22:25.052Z,6.85
2023-09-05T08:24:53.318Z,9.55
2023-09-05T08:27:20.851Z,6.93
2023-09-05T08:29:48.014Z,10.88
2023-09-05T08:32:15.043Z,5.82
2023-09-05T08:34:42.141Z,8.00
2023-09-05T08:37:09.150Z,6.53
2023-09-05T08:39:36.073Z,8.75
2023-09-05T08:42:06.432Z,9.88
2023-09-05T08:44:40.069Z,7.85
2023-09-05T08:47:07.194Z,7.12
2023-09-05T08:49:34.258Z,7.32
2023-09-05T08:52:05.646Z,11.25
2023-09-05T08:54:32.626Z,8.20
2023-09-05T08:56:59.973Z,7.75
2023-09-05T08:59:27.144Z,7.62
2023-09-05T09:01:56.433Z,5.90
2023-09-05T09:04:24.346Z,7.35
2023-09-05T09:06:56.873Z,7.28
2023-09-05T09:09:42.530Z,6.72
2023-09-05T09:12:09.626Z,7.25
2023-09-05T09:14:36.840Z,6.90
2023-09-05T09:17:07.004Z,6.85
2023-09-05T09:19:34.405Z,9.25
2023-09-05T09:22:03.438Z,6.72
2023-09-05T09:24:37.883Z,8.43
2023-09-05T09:27:06.279Z,8.10
2023-09-05T09:29:34.122Z,7.47
2023-09-05T09:32:06.280Z,6.82
2023-09-05T09:34:36.004Z,9.43
2023-09-05T09:37:03.134Z,7.55
2023-09-05T09:39:31.334Z,7.30
2023-09-05T09:42:02.361Z,7.78
2023-09-05T09:44:35.221Z,10.20
2023-09-05T09:47:04.019Z,9.35
2023-09-05T09:49:32.151Z,8.38
2023-09-05T09:52:05.767Z,8.90
2023-09-05T09:54:39.903Z,7.28
2023-09-05T09:57:07.488Z,8.80
2023-09-05T09:59:37.161Z,7.82
2023-09-05T10:02:14.943Z,6.95
2023-09-05T10:04:50.517Z,7.05
2023-09-05T10:07:19.818Z,6.45
2023-09-05T10:09:49.473Z,7.80
2023-09-05T10:12:22.311Z,6.72
2023-09-05T10:14:50.289Z,6.55
2023-09-05T10:17:17.668Z,6.70
2023-09-05T10:19:45.689Z,7.00
2023-09-05T10:22:18.250Z,9.13
2023-09-05T10:24:46.018Z,7.00
2023-09-05T10:27:13.066Z,8.57
2023-09-05T10:29:45.175Z,9.27
2023-09-05T10:32:23.341Z,9.07
2023-09-05T10:34:50.249Z,8.02
2023-09-05T10:37:20.645Z,5.95
2023-09-05T10:39:48.552Z,8.88
2023-09-05T10:42:16.222Z,7.05
2023-09-05T10:44:48.987Z,8.98
2023-09-05T10:47:38.962Z,5.80
2023-09-05T10:50:07.862Z,6.30
2023-09-05T10:52:35.271Z,5.10
2023-09-05T10:55:30.676Z,7.07
2023-09-05T10:57:57.907Z,8.93
2023-09-05T11:00:28.327Z,5.87
2023-09-05T11:02:57.488Z,5.43
2023-09-05T11:05:28.549Z,6.37
2023-09-05T11:08:00.229Z,8.45
2023-09-05T11:10:32.702Z,7.03
2023-09-05T11:13:15.564Z,7.57
2023-09-05T11:15:46.230Z,5.65
2023-09-05T11:18:15.776Z,5.22
2023-09-05T11:20:44.882Z,6.30
2023-09-05T11:23:18.023Z,6.90
2023-09-05T11:25:49.402Z,5.45
2023-09-05T11:28:16.964Z,4.50
2023-09-05T11:30:47.775Z,4.85
2023-09-05T11:33:16.104Z,5.78
2023-09-05T11:35:44.308Z,4.70
2023-09-05T11:38:11.319Z,5.28
2023-09-05T11:40:40.077Z,4.90
2023-09-05T11:43:10.185Z,5.05
2023-09-05T11:45:46.438Z,5.55
2023-09-05T11:48:15.931Z,5.60
2023-09-05T11:50:45.369Z,4.37
2023-09-05T11:53:15.438Z,4.70
2023-09-05T11:55:43.628Z,7.03
2023-09-05T11:58:11.837Z,4.87
2023-09-05T12:00:44.656Z,5.50
2023-09-05T12:03:14.339Z,5.65
2023-09-05T12:05:42.389Z,4.53
2023-09-05T12:08:18.670Z,5.22
2023-09-05T12:10:57.195Z,5.00
2023-09-05T12:13:44.706Z,7.22
2023-09-05T12:16:12.227Z,5.78
2023-09-05T12:18:40.915Z,4.28
2023-09-05T12:21:08.767Z,4.43
2023-09-05T12:23:35.881Z,4.28
2023-09-05T12:26:04.149Z,4.12
2023-09-05T12:28:32.315Z,4.22
2023-09-05T12:31:07.087Z,4.20
2023-09-05T12:33:34.164Z,5.37
2023-09-05T12:36:01.276Z,3.83
2023-09-05T12:38:31.240Z,5.72
2023-09-05T12:40:59.070Z,5.05
2023-09-05T12:43:26.234Z,4.35
2023-09-05T12:45:53.272Z,4.20
2023-09-05T12:48:20.286Z,4.93
2023-09-05T12:50:50.580Z,5.87
2023-09-05T12:53:20.571Z,6.50
2023-09-05T12:55:48.289Z,6.22
2023-09-05T12:58:15.506Z,6.97
2023-09-05T13:00:42.936Z,6.03
2023-09-05T13:03:12.713Z,5.30
2023-09-05T13:05:41.014Z,3.95
2023-09-05T13:08:10.190Z,6.30
2023-09-05T13:10:37.117Z,4.20
2023-09-05T13:13:06.022Z,4.60
2023-09-05T13:15:33.344Z,5.05
2023-09-05T13:18:01.239Z,6.20
2023-09-05T13:20:31.769Z,5.07
2023-09-05T13:22:59.527Z,5.18
2023-09-05T13:25:28.794Z,5.43
2023-09-05T13:27:55.688Z,4.53
2023-09-05T13:30:22.625Z,6.15
2023-09-05T13:32:49.621Z,6.40
2023-09-05T13:35:16.538Z,7.30
2023-09-05T13:37:43.764Z,8.25
2023-09-05T13:40:11.101Z,5.80
2023-09-05T13:42:38.139Z,7.00
2023-09-05T13:45:05.685Z,5.43
2023-09-05T13:47:34.464Z,5.20
2023-09-05T13:50:01.444Z,7.20
2023-09-05T13:52:28.379Z,3.87
2023-09-05T13:54:55.317Z,7.03
2023-09-05T13:57:24.312Z,4.37
2023-09-05T13:59:52.789Z,3.92
2023-09-05T14:02:19.895Z,6.37
2023-09-05T14:04:46.792Z,5.90
2023-09-05T14:07:13.788Z,5.40
2023-09-05T14:09:40.779Z,4.78
2023-09-05T14:12:09.253Z,4.78
2023-09-05T14:14:36.531Z,4.75
2023-09-05T14:17:03.660Z,4.32
2023-09-05T14:19:30.650Z,4.75
2023-09-05T14:21:57.593Z,5.10
2023-09-05T14:24:24.820Z,5.57
2023-09-05T14:26:51.837Z,9.30
2023-09-05T14:29:18.730Z,6.10
2023-09-05T14:31:45.704Z,6.40
2023-09-05T14:34:13.194Z,5.12
2023-09-05T14:36:41.178Z,6.53
2023-09-05T14:39:08.295Z,5.18
2023-09-05T14:41:35.256Z,7.05
2023-09-05T14:44:05.055Z,6.12
2023-09-05T14:46:33.766Z,5.32
2023-09-05T14:49:01.035Z,8.50
2023-09-05T14:51:28.122Z,5.78
2023-09-05T14:53:55.320Z,4.97
2023-09-05T14:56:22.349Z,5.30
2023-09-05T14:58:49.756Z,5.65
2023-09-05T15:01:16.821Z,5.70
2023-09-05T15:03:44.286Z,6.75
2023-09-05T15:06:11.981Z,5.72
2023-09-05T15:08:39.208Z,6.45
2023-09-05T15:11:06.494Z,6.62
2023-09-05T15:13:34.262Z,8.15
2023-09-05T15:16:02.055Z,8.98
2023-09-05T15:18:29.849Z,6.30
2023-09-05T15:20:57.074Z,6.72
2023-09-05T15:23:24.105Z,5.85
2023-09-05T15:25:51.075Z,5.90
2023-09-05T15:28:18.131Z,5.37
2023-09-05T15:30:45.257Z,6.93
2023-09-05T15:33:12.455Z,6.03
2023-09-05T15:35:39.443Z,6.07
2023-09-05T15:38:07.530Z,6.72
2023-09-05T15:40:38.229Z,5.57
2023-09-05T15:43:05.372Z,6.32
2023-09-05T15:45:32.801Z,7.70
2023-09-05T15:48:01.426Z,6.12
2023-09-05T15:50:29.701Z,5.15
2023-09-05T15:52:56.760Z,7.37
2023-09-05T15:55:23.674Z,6.05
2023-09-05T15:57:50.835Z,6.65
2023-09-05T16:00:18.271Z,6.45
2023-09-05T16:02:46.996Z,7.47
2023-09-05T16:05:14.131Z,8.13
2023-09-05T16:07:41.060Z,4.85
2023-09-05T16:10:08.388Z,6.18
2023-09-05T16:12:37.176Z,6.25
2023-09-05T16:15:04.469Z,6.60
2023-09-05T16:17:31.324Z,6.93
2023-09-05T16:19:58.185Z,6.87
2023-09-05T16:22:25.139Z,8.38
2023-09-05T16:24:52.100Z,5.80
2023-09-05T16:27:19.137Z,6.75
2023-09-05T16:29:47.834Z,8.43
2023-09-05T16:32:16.037Z,8.18
2023-09-05T16:34:43.085Z,7.50
2023-09-05T16:37:10.141Z,8.82
2023-09-05T16:39:38.811Z,6.43
2023-09-05T16:42:06.024Z,6.55
2023-09-05T16:44:32.953Z,7.00
2023-09-05T16:46:59.919Z,5.65
2023-09-05T16:49:26.838Z,8.07
2023-09-05T16:51:53.887Z,5.87
2023-09-05T16:54:20.889Z,5.78
2023-09-05T16:56:47.874Z,8.25
2023-09-05T16:59:14.823Z,7.10
2023-09-05T17:01:42.541Z,6.93
2023-09-05T17:04:09.788Z,6.32
2023-09-05T17:06:37.471Z,8.45
2023-09-05T17:09:09.875Z,7.53
2023-09-05T17:11:37.392Z,7.43
2023-09-05T17:14:05.067Z,7.00
2023-09-05T17:16:32.622Z,7.30
2023-09-05T17:18:59.785Z,6.25
2023-09-05T17:21:26.940Z,7.85
2023-09-05T17:23:53.919Z,10.00
2023-09-05T17:26:20.903Z,8.05
2023-09-05T17:28:47.838Z,8.63
2023-09-05T17:31:15.077Z,12.73
2023-09-05T17:33:42.221Z,8.18
2023-09-05T17:36:13.009Z,9.88
2023-09-05T17:38:40.653Z,11.43
2023-09-05T17:41:08.424Z,8.32
2023-09-05T17:43:36.258Z,9.45
2023-09-05T17:46:07.285Z,14.87
2023-09-05T17:48:35.376Z,10.38
2023-09-05T17:51:02.435Z,13.60
2023-09-05T17:53:29.740Z,11.45
2023-09-05T17:55:57.215Z,10.10
2023-09-05T17:58:24.459Z,10.93
2023-09-05T18:00:51.935Z,11.10
2023-09-05T18:03:19.177Z,9.60
2023-09-05T18:05:51.011Z,9.95
2023-09-05T18:08:18.318Z,10.85
2023-09-05T18:10:46.124Z,13.68
2023-09-05T18:13:13.075Z,12.30
2023-09-05T18:15:40.078Z,11.32
2023-09-05T18:18:07.125Z,12.10
2023-09-05T18:20:36.191Z,9.88
2023-09-05T18:23:04.047Z,10.32
2023-09-05T18:25:32.291Z,11.23
2023-09-05T18:28:01.017Z,11.43
2023-09-05T18:30:28.072Z,10.05
2023-09-05T18:32:55.064Z,7.45
2023-09-05T18:35:22.068Z,10.57
2023-09-05T18:37:49.045Z,9.63
2023-09-05T18:40:16.046Z,9.70
2023-09-05T18:42:43.025Z,12.93
2023-09-05T18:45:11.280Z,11.12
2023-09-05T18:47:38.747Z,8.68
2023-09-05T18:50:06.519Z,9.98
2023-09-05T18:52:33.653Z,9.13
2023-09-05T18:55:00.680Z,10.38
2023-09-05T18:57:28.590Z,9.02
2023-09-05T18:59:55.702Z,10.95
2023-09-05T19:02:29.200Z,8.45
2023-09-05T19:04:56.986Z,11.93
2023-09-05T19:07:24.020Z,11.18
2023-09-05T19:09:51.107Z,9.85
2023-09-05T19:12:19.689Z,10.38
2023-09-05T19:14:48.285Z,8.27
2023-09-05T19:17:15.811Z,12.05
2023-09-05T19:19:42.716Z,8.77
2023-09-05T19:22:09.644Z,10.57
2023-09-05T19:24:37.854Z,14.93
2023-09-05T19:27:05.422Z,10.45
2023-09-05T19:29:32.644Z,11.45
2023-09-05T19:31:59.537Z,10.18
2023-09-05T19:34:26.696Z,10.43
2023-09-05T19:36:53.778Z,14.32
2023-09-05T19:39:20.957Z,8.68
2023-09-05T19:41:47.960Z,15.27
2023-09-05T19:44:14.858Z,9.80
2023-09-05T19:46:41.839Z,10.10
2023-09-05T19:49:08.811Z,11.55
2023-09-05T19:51:35.848Z,10.02
2023-09-05T19:54:02.919Z,10.02
2023-09-05T19:56:29.836Z,11.20
2023-09-05T19:58:57.549Z,9.65
2023-09-05T20:01:24.693Z,10.45
2023-09-05T20:03:52.783Z,12.00
2023-09-05T20:06:19.997Z,9.32
2023-09-05T20:08:47.306Z,9.40
2023-09-05T20:11:14.256Z,8.98
2023-09-05T20:13:41.200Z,11.63
2023-09-05T20:16:08.229Z,11.27
2023-09-05T20:18:35.198Z,12.32
2023-09-05T20:21:02.831Z,9.07
2023-09-05T20:23:29.878Z,9.98
2023-09-05T20:25:56.814Z,9.75
2023-09-05T20:28:23.798Z,9.85
2023-09-05T20:30:55.423Z,11.32
2023-09-05T20:33:23.995Z,10.20
2023-09-05T20:35:53.200Z,10.55
2023-09-05T20:38:21.461Z,9.82
2023-09-05T20:40:49.010Z,9.60
2023-09-05T20:43:17.870Z,10.68
2023-09-05T20:45:45.493Z,8.98
2023-09-05T20:48:12.922Z,13.75
2023-09-05T20:50:40.056Z,10.13
2023-09-05T20:53:07.256Z,9.23
2023-09-05T20:55:34.926Z,10.23
2023-09-05T20:58:02.318Z,9.38
2023-09-05T21:00:30.644Z,9.52
2023-09-05T21:03:00.618Z,10.75
2023-09-05T21:05:31.150Z,11.25
2023-09-05T21:07:58.151Z,9.05
2023-09-05T21:10:26.450Z,9.27
2023-09-05T21:12:56.869Z,11.40
2023-09-05T21:15:24.683Z,12.32
2023-09-05T21:17:51.808Z,12.05
2023-09-05T21:20:18.929Z,10.88
2023-09-05T21:22:45.942Z,8.75
2023-09-05T21:25:14.452Z,9.63
2023-09-05T21:27:41.807Z,10.73
2023-09-05T21:30:10.050Z,8.90
2023-09-05T21:32:39.917Z,9.18
2023-09-05T21:35:07.776Z,15.45
2023-09-05T21:37:34.724Z,9.25
2023-09-05T21:40:02.047Z,9.73
2023-09-05T21:42:29.060Z,12.20
2023-09-05T21:44:56.276Z,9.13
2023-09-05T21:47:23.504Z,10.30
2023-09-05T21:49:52.573Z,10.05
2023-09-05T21:52:20.898Z,11.65
2023-09-05T21:54:48.051Z,10.73
2023-09-05T21:57:15.014Z,9.93
2023-09-05T21:59:42.113Z,9.98
2023-09-05T22:02:09.097Z,9.02
2023-09-05T22:04:38.103Z,9.38
2023-09-05T22:07:05.540Z,8.57
2023-09-05T22:09:32.703Z,10.15
2023-09-05T22:12:05.997Z,9.70
2023-09-05T22:14:33.314Z,9.88
2023-09-05T22:17:00.705Z,9.40
2023-09-05T22:19:32.569Z,10.13
2023-09-05T22:22:03.869Z,11.55
2023-09-05T22:24:33.064Z,8.55
2023-09-05T22:27:01.661Z,10.60
2023-09-05T22:29:28.586Z,10.20
2023-09-05T22:31:55.602Z,9.75
2023-09-05T22:34:22.541Z,9.70
2023-09-05T22:36:51.896Z,10.45
2023-09-05T22:39:19.880Z,10.40
2023-09-05T22:41:49.482Z,11.07
2023-09-05T22:44:16.886Z,10.82
2023-09-05T22:46:43.931Z,11.15
2023-09-05T22:49:11.116Z,9.80
2023-09-05T22:51:38.560Z,10.20
2023-09-05T22:54:05.944Z,11.30
2023-09-05T22:56:33.529Z,11.73
2023-09-05T22:59:00.499Z,10.18
2023-09-05T23:01:27.619Z,11.27
2023-09-05T23:03:54.829Z,10.57
2023-09-05T23:06:21.901Z,10.23
2023-09-05T23:08:49.148Z,10.35
2023-09-05T23:11:16.355Z,10.50
2023-09-05T23:13:43.261Z,10.23
2023-09-05T23:16:10.328Z,11.23
2023-09-05T23:18:39.062Z,10.32
2023-09-05T23:21:06.634Z,10.88
2023-09-05T23:23:36.330Z,11.65
2023-09-05T23:26:04.348Z,11.40
2023-09-05T23:28:32.133Z,13.70
2023-09-05T23:31:02.047Z,10.80
2023-09-05T23:33:31.068Z,9.82
2023-09-05T23:35:58.271Z,10.77
2023-09-05T23:38:25.551Z,11.57
2023-09-05T23:40:52.662Z,11.73
2023-09-05T23:43:19.535Z,10.15
2023-09-05T23:45:54.249Z,12.77
2023-09-05T23:48:24.768Z,11.55
2023-09-05T23:50:52.070Z,9.15
2023-09-05T23:53:19.082Z,9.38
2023-09-05T23:55:46.367Z,11.18
2023-09-05T23:58:13.681Z,10.55
